sensor_id;sensor_type;location;lat;lon;timestamp;pressure;altitude;pressure_sealevel;temperature;humidity
5455;BME280;2750;49.050;9.250;2023-03-16T00:03:50;99242.41;;;3.29;88.58
5455;BME280;2750;49.050;9.250;2023-03-16T00:08:52;99251.69;;;3.40;88.26
5455;BME280;2750;49.050;9.250;2023-03-16T00:13:58;99250.94;;;3.30;88.77
5455;BME280;2750;49.050;9.250;2023-03-16T00:19:01;99243.31;;;3.24;88.41
5455;BME280;2750;49.050;9.250;2023-03-16T00:24:05;99243.16;;;3.37;87.85
5455;BME280;2750;49.050;9.250;2023-03-16T00:29:06;99249.16;;;3.38;86.99
5455;BME280;2750;49.050;9.250;2023-03-16T00:34:10;99250.94;;;3.33;87.28
5455;BME280;2750;49.050;9.250;2023-03-16T00:39:12;99249.09;;;3.43;86.74
5455;BME280;2750;49.050;9.250;2023-03-16T00:44:14;99246.72;;;3.24;87.46
5455;BME280;2750;49.050;9.250;2023-03-16T00:49:17;99242.66;;;3.05;88.16
5455;BME280;2750;49.050;9.250;2023-03-16T00:54:18;99239.09;;;3.18;87.79
5455;BME280;2750;49.050;9.250;2023-03-16T00:59:21;99246.00;;;3.13;87.41
5455;BME280;2750;49.050;9.250;2023-03-16T01:04:24;99235.63;;;3.24;87.39
5455;BME280;2750;49.050;9.250;2023-03-16T01:09:25;99234.88;;;3.13;87.47
5455;BME280;2750;49.050;9.250;2023-03-16T01:14:27;99235.78;;;3.10;86.42
5455;BME280;2750;49.050;9.250;2023-03-16T01:19:30;99234.25;;;2.88;87.87
5455;BME280;2750;49.050;9.250;2023-03-16T01:24:33;99230.00;;;2.85;87.94
5455;BME280;2750;49.050;9.250;2023-03-16T01:29:35;99226.47;;;2.99;86.89
5455;BME280;2750;49.050;9.250;2023-03-16T01:34:38;99224.81;;;2.93;86.76
5455;BME280;2750;49.050;9.250;2023-03-16T01:39:40;99220.59;;;2.86;86.45
5455;BME280;2750;49.050;9.250;2023-03-16T01:44:51;99209.69;;;2.63;88.21
5455;BME280;2750;49.050;9.250;2023-03-16T01:49:56;99202.72;;;2.81;86.35
5455;BME280;2750;49.050;9.250;2023-03-16T01:54:59;99198.38;;;2.88;85.75
5455;BME280;2750;49.050;9.250;2023-03-16T02:00:06;99210.53;;;2.65;86.50
5455;BME280;2750;49.050;9.250;2023-03-16T02:05:13;99205.28;;;2.80;86.52
5455;BME280;2750;49.050;9.250;2023-03-16T02:10:17;99195.84;;;2.85;86.33
5455;BME280;2750;49.050;9.250;2023-03-16T02:15:20;99200.16;;;2.83;86.57
5455;BME280;2750;49.050;9.250;2023-03-16T02:20:31;99197.56;;;2.86;85.72
5455;BME280;2750;49.050;9.250;2023-03-16T02:25:39;99184.84;;;2.75;86.38
5455;BME280;2750;49.050;9.250;2023-03-16T02:30:44;99187.59;;;2.53;87.27
5455;BME280;2750;49.050;9.250;2023-03-16T02:35:47;99181.53;;;2.63;87.24
5455;BME280;2750;49.050;9.250;2023-03-16T02:40:55;99177.94;;;2.82;87.03
5455;BME280;2750;49.050;9.250;2023-03-16T02:46:00;99173.75;;;2.75;87.48
5455;BME280;2750;49.050;9.250;2023-03-16T02:51:04;99166.81;;;2.84;87.85
5455;BME280;2750;49.050;9.250;2023-03-16T02:56:06;99165.28;;;2.67;87.00
5455;BME280;2750;49.050;9.250;2023-03-16T03:01:09;99174.66;;;2.66;85.70
5455;BME280;2750;49.050;9.250;2023-03-16T03:06:11;99174.03;;;2.40;86.58
5455;BME280;2750;49.050;9.250;2023-03-16T03:11:12;99170.53;;;2.50;87.33
5455;BME280;2750;49.050;9.250;2023-03-16T03:16:16;99171.34;;;2.57;87.01
5455;BME280;2750;49.050;9.250;2023-03-16T03:21:17;99163.84;;;2.32;87.30
5455;BME280;2750;49.050;9.250;2023-03-16T03:26:20;99161.50;;;2.07;88.80
5455;BME280;2750;49.050;9.250;2023-03-16T03:31:22;99170.81;;;2.12;88.89
5455;BME280;2750;49.050;9.250;2023-03-16T03:36:24;99164.75;;;2.30;87.33
5455;BME280;2750;49.050;9.250;2023-03-16T03:41:26;99163.22;;;2.03;87.80
5455;BME280;2750;49.050;9.250;2023-03-16T03:46:29;99156.25;;;2.23;87.37
5455;BME280;2750;49.050;9.250;2023-03-16T03:51:30;99147.75;;;2.17;88.02
5455;BME280;2750;49.050;9.250;2023-03-16T03:56:32;99149.53;;;2.10;88.85
5455;BME280;2750;49.050;9.250;2023-03-16T04:01:35;99138.25;;;2.31;87.07
5455;BME280;2750;49.050;9.250;2023-03-16T04:06:36;99151.28;;;2.02;88.00
5455;BME280;2750;49.050;9.250;2023-03-16T04:11:38;99141.81;;;2.12;87.58
5455;BME280;2750;49.050;9.250;2023-03-16T04:16:41;99127.19;;;2.27;86.72
5455;BME280;2750;49.050;9.250;2023-03-16T04:21:43;99140.63;;;2.57;85.84
5455;BME280;2750;49.050;9.250;2023-03-16T04:26:45;99138.97;;;2.51;85.71
5455;BME280;2750;49.050;9.250;2023-03-16T04:31:48;99119.38;;;2.49;85.94
5455;BME280;2750;49.050;9.250;2023-03-16T04:36:50;99125.13;;;2.72;85.68
5455;BME280;2750;49.050;9.250;2023-03-16T04:41:52;99121.75;;;2.65;86.38
5455;BME280;2750;49.050;9.250;2023-03-16T04:46:55;99130.94;;;2.84;86.98
5455;BME280;2750;49.050;9.250;2023-03-16T04:51:58;99124.72;;;3.08;86.12
5455;BME280;2750;49.050;9.250;2023-03-16T04:57:00;99123.22;;;2.89;86.47
5455;BME280;2750;49.050;9.250;2023-03-16T05:02:04;99130.13;;;2.82;90.09
5455;BME280;2750;49.050;9.250;2023-03-16T05:07:05;99136.69;;;3.09;91.77
5455;BME280;2750;49.050;9.250;2023-03-16T05:12:08;99125.47;;;3.18;92.49
5455;BME280;2750;49.050;9.250;2023-03-16T05:17:11;99132.09;;;3.34;93.62
5455;BME280;2750;49.050;9.250;2023-03-16T05:22:14;99127.63;;;3.50;89.83
5455;BME280;2750;49.050;9.250;2023-03-16T05:27:15;99115.69;;;3.49;89.19
5455;BME280;2750;49.050;9.250;2023-03-16T05:32:18;99121.59;;;3.55;89.87
5455;BME280;2750;49.050;9.250;2023-03-16T05:37:19;99105.25;;;3.62;87.49
5455;BME280;2750;49.050;9.250;2023-03-16T05:42:21;99107.81;;;3.64;87.00
5455;BME280;2750;49.050;9.250;2023-03-16T05:47:24;99117.31;;;3.56;85.97
5455;BME280;2750;49.050;9.250;2023-03-16T05:52:25;99109.56;;;3.60;85.47
5455;BME280;2750;49.050;9.250;2023-03-16T05:57:27;99106.06;;;3.66;85.96
5455;BME280;2750;49.050;9.250;2023-03-16T06:02:30;99098.25;;;3.75;86.10
5455;BME280;2750;49.050;9.250;2023-03-16T06:07:31;99104.34;;;3.65;86.61
5455;BME280;2750;49.050;9.250;2023-03-16T06:12:33;99099.78;;;3.85;87.07
5455;BME280;2750;49.050;9.250;2023-03-16T06:17:37;99097.63;;;4.14;87.14
5455;BME280;2750;49.050;9.250;2023-03-16T06:22:40;99093.16;;;4.27;87.44
5455;BME280;2750;49.050;9.250;2023-03-16T06:27:42;99097.97;;;4.45;87.07
5455;BME280;2750;49.050;9.250;2023-03-16T06:32:45;99095.75;;;4.74;87.36
5455;BME280;2750;49.050;9.250;2023-03-16T06:37:47;99097.34;;;4.81;88.16
5455;BME280;2750;49.050;9.250;2023-03-16T06:42:48;99097.63;;;5.11;88.08
5455;BME280;2750;49.050;9.250;2023-03-16T06:47:51;99099.22;;;5.16;88.42
5455;BME280;2750;49.050;9.250;2023-03-16T06:52:53;99089.81;;;5.57;88.47
5455;BME280;2750;49.050;9.250;2023-03-16T06:57:55;99091.38;;;6.02;87.92
5455;BME280;2750;49.050;9.250;2023-03-16T07:02:57;99092.00;;;7.43;87.92
5455;BME280;2750;49.050;9.250;2023-03-16T07:07:59;99102.97;;;8.06;85.78
5455;BME280;2750;49.050;9.250;2023-03-16T07:13:01;99095.13;;;8.87;82.37
5455;BME280;2750;49.050;9.250;2023-03-16T07:18:05;99103.72;;;10.27;79.62
5455;BME280;2750;49.050;9.250;2023-03-16T07:23:06;99105.97;;;11.17;75.51
5455;BME280;2750;49.050;9.250;2023-03-16T07:28:08;99114.47;;;9.94;72.25
5455;BME280;2750;49.050;9.250;2023-03-16T07:33:12;99112.94;;;10.96;72.18
5455;BME280;2750;49.050;9.250;2023-03-16T07:38:14;99104.91;;;12.33;70.95
5455;BME280;2750;49.050;9.250;2023-03-16T07:43:15;99101.09;;;12.40;68.05
5455;BME280;2750;49.050;9.250;2023-03-16T07:48:18;99096.34;;;13.17;64.86
5455;BME280;2750;49.050;9.250;2023-03-16T07:53:20;99092.06;;;13.49;64.14
5455;BME280;2750;49.050;9.250;2023-03-16T07:58:21;99090.25;;;12.66;64.61
5455;BME280;2750;49.050;9.250;2023-03-16T08:03:25;99096.91;;;13.39;63.44
5455;BME280;2750;49.050;9.250;2023-03-16T08:08:26;99095.88;;;13.09;62.96
5455;BME280;2750;49.050;9.250;2023-03-16T08:13:28;99094.91;;;12.77;64.29
5455;BME280;2750;49.050;9.250;2023-03-16T08:18:31;99089.00;;;12.73;63.55
5455;BME280;2750;49.050;9.250;2023-03-16T08:23:34;99084.56;;;13.10;62.42
5455;BME280;2750;49.050;9.250;2023-03-16T08:28:35;99091.50;;;13.26;63.69
5455;BME280;2750;49.050;9.250;2023-03-16T08:33:38;99087.13;;;13.60;62.12
5455;BME280;2750;49.050;9.250;2023-03-16T08:38:40;99060.94;;;15.68;58.38
5455;BME280;2750;49.050;9.250;2023-03-16T08:43:42;99063.31;;;13.97;60.12
5455;BME280;2750;49.050;9.250;2023-03-16T08:48:47;99052.03;;;13.97;61.51
5455;BME280;2750;49.050;9.250;2023-03-16T08:53:49;99050.63;;;14.66;60.10
5455;BME280;2750;49.050;9.250;2023-03-16T08:58:51;99045.47;;;12.92;63.69
5455;BME280;2750;49.050;9.250;2023-03-16T09:03:54;99049.69;;;13.45;62.88
5455;BME280;2750;49.050;9.250;2023-03-16T09:08:55;99050.03;;;13.70;61.71
5455;BME280;2750;49.050;9.250;2023-03-16T09:13:57;99046.81;;;13.97;61.84
5455;BME280;2750;49.050;9.250;2023-03-16T09:18:59;99050.56;;;14.68;60.60
5455;BME280;2750;49.050;9.250;2023-03-16T09:24:01;99042.19;;;13.70;62.78
5455;BME280;2750;49.050;9.250;2023-03-16T09:29:03;99041.03;;;13.76;62.42
5455;BME280;2750;49.050;9.250;2023-03-16T09:34:07;99024.47;;;14.07;62.86
5455;BME280;2750;49.050;9.250;2023-03-16T09:39:10;99030.06;;;13.85;62.93
5455;BME280;2750;49.050;9.250;2023-03-16T09:44:22;99020.91;;;13.62;63.92
5455;BME280;2750;49.050;9.250;2023-03-16T09:49:33;99019.47;;;13.88;63.57
5455;BME280;2750;49.050;9.250;2023-03-16T09:54:39;99003.56;;;13.93;62.54
5455;BME280;2750;49.050;9.250;2023-03-16T09:59:43;99019.78;;;15.15;60.17
5455;BME280;2750;49.050;9.250;2023-03-16T10:04:51;99015.22;;;14.47;60.20
5455;BME280;2750;49.050;9.250;2023-03-16T10:09:58;99020.47;;;14.01;61.85
5455;BME280;2750;49.050;9.250;2023-03-16T10:15:05;99006.25;;;13.91;62.50
5455;BME280;2750;49.050;9.250;2023-03-16T10:20:16;99010.81;;;13.40;63.46
5455;BME280;2750;49.050;9.250;2023-03-16T10:25:22;98993.53;;;14.01;61.82
5455;BME280;2750;49.050;9.250;2023-03-16T10:30:27;98989.13;;;14.17;61.69
5455;BME280;2750;49.050;9.250;2023-03-16T10:35:39;98970.94;;;13.54;62.11
5455;BME280;2750;49.050;9.250;2023-03-16T10:40:42;98976.94;;;14.31;61.28
5455;BME280;2750;49.050;9.250;2023-03-16T10:45:44;98971.34;;;14.81;61.02
5455;BME280;2750;49.050;9.250;2023-03-16T10:50:50;98973.91;;;15.38;60.17
5455;BME280;2750;49.050;9.250;2023-03-16T10:55:57;98976.22;;;15.57;59.52
5455;BME280;2750;49.050;9.250;2023-03-16T11:00:59;98973.59;;;16.10;58.62
5455;BME280;2750;49.050;9.250;2023-03-16T11:06:04;98957.38;;;15.78;58.02
5455;BME280;2750;49.050;9.250;2023-03-16T11:11:09;98964.75;;;15.31;59.66
5455;BME280;2750;49.050;9.250;2023-03-16T11:16:30;98961.09;;;15.62;58.03
5455;BME280;2750;49.050;9.250;2023-03-16T11:21:45;98952.09;;;14.68;59.21
5455;BME280;2750;49.050;9.250;2023-03-16T11:26:53;98949.38;;;14.42;58.80
5455;BME280;2750;49.050;9.250;2023-03-16T11:31:58;98933.53;;;15.42;57.71
5455;BME280;2750;49.050;9.250;2023-03-16T11:37:12;98940.81;;;14.96;58.15
5455;BME280;2750;49.050;9.250;2023-03-16T11:42:27;98935.03;;;15.46;57.10
5455;BME280;2750;49.050;9.250;2023-03-16T11:47:52;98921.81;;;15.35;56.09
5455;BME280;2750;49.050;9.250;2023-03-16T11:53:00;98905.81;;;15.13;56.60
5455;BME280;2750;49.050;9.250;2023-03-16T11:58:13;98903.97;;;14.72;56.10
5455;BME280;2750;49.050;9.250;2023-03-16T12:03:41;98902.66;;;15.35;55.54
5455;BME280;2750;49.050;9.250;2023-03-16T12:08:58;98906.94;;;15.50;54.56
5455;BME280;2750;49.050;9.250;2023-03-16T12:14:12;98890.94;;;15.54;54.51
5455;BME280;2750;49.050;9.250;2023-03-16T12:19:18;98887.38;;;15.82;54.12
5455;BME280;2750;49.050;9.250;2023-03-16T12:24:26;98887.53;;;16.31;54.63
5455;BME280;2750;49.050;9.250;2023-03-16T12:29:32;98882.50;;;16.66;54.04
5455;BME280;2750;49.050;9.250;2023-03-16T12:34:40;98865.88;;;17.27;51.10
5455;BME280;2750;49.050;9.250;2023-03-16T12:39:54;98861.63;;;16.64;53.46
5455;BME280;2750;49.050;9.250;2023-03-16T12:45:13;98863.22;;;16.29;52.75
5455;BME280;2750;49.050;9.250;2023-03-16T12:50:18;98863.38;;;16.89;51.59
5455;BME280;2750;49.050;9.250;2023-03-16T12:55:24;98839.94;;;16.37;52.89
5455;BME280;2750;49.050;9.250;2023-03-16T13:00:32;98839.75;;;16.65;51.44
5455;BME280;2750;49.050;9.250;2023-03-16T13:05:35;98834.34;;;17.16;48.46
5455;BME280;2750;49.050;9.250;2023-03-16T13:10:39;98818.16;;;16.49;48.44
5455;BME280;2750;49.050;9.250;2023-03-16T13:15:41;98832.44;;;17.18;50.79
5455;BME280;2750;49.050;9.250;2023-03-16T13:20:53;98830.41;;;18.15;50.88
5455;BME280;2750;49.050;9.250;2023-03-16T13:26:01;98825.69;;;17.03;48.51
5455;BME280;2750;49.050;9.250;2023-03-16T13:31:04;98820.84;;;17.57;48.32
5455;BME280;2750;49.050;9.250;2023-03-16T13:36:06;98828.38;;;18.30;47.55
5455;BME280;2750;49.050;9.250;2023-03-16T13:41:10;98815.94;;;18.09;48.27
5455;BME280;2750;49.050;9.250;2023-03-16T13:46:15;98801.63;;;18.25;46.69
5455;BME280;2750;49.050;9.250;2023-03-16T13:51:19;98798.00;;;19.46;47.64
5455;BME280;2750;49.050;9.250;2023-03-16T13:56:25;98788.38;;;18.15;46.15
5455;BME280;2750;49.050;9.250;2023-03-16T14:01:30;98788.63;;;18.01;48.50
5455;BME280;2750;49.050;9.250;2023-03-16T14:06:32;98780.59;;;18.02;47.71
5455;BME280;2750;49.050;9.250;2023-03-16T14:11:36;98774.38;;;17.81;47.40
5455;BME280;2750;49.050;9.250;2023-03-16T14:16:37;98762.72;;;17.96;47.60
5455;BME280;2750;49.050;9.250;2023-03-16T14:21:42;98762.09;;;19.14;45.22
5455;BME280;2750;49.050;9.250;2023-03-16T14:26:46;98740.34;;;19.94;45.14
5455;BME280;2750;49.050;9.250;2023-03-16T14:31:48;98730.44;;;19.04;47.80
5455;BME280;2750;49.050;9.250;2023-03-16T14:36:49;98731.31;;;17.84;48.76
5455;BME280;2750;49.050;9.250;2023-03-16T14:41:53;98730.09;;;18.43;48.44
5455;BME280;2750;49.050;9.250;2023-03-16T14:46:54;98732.28;;;18.05;48.12
5455;BME280;2750;49.050;9.250;2023-03-16T14:51:58;98729.63;;;17.94;46.46
5455;BME280;2750;49.050;9.250;2023-03-16T14:57:03;98726.44;;;18.01;47.06
5455;BME280;2750;49.050;9.250;2023-03-16T15:02:13;98722.22;;;17.88;47.22
5455;BME280;2750;49.050;9.250;2023-03-16T15:07:27;98729.03;;;17.44;47.90
5455;BME280;2750;49.050;9.250;2023-03-16T15:12:31;98731.38;;;17.25;47.54
5455;BME280;2750;49.050;9.250;2023-03-16T15:17:33;98724.56;;;16.88;48.94
5455;BME280;2750;49.050;9.250;2023-03-16T15:22:37;98727.00;;;17.02;49.13
5455;BME280;2750;49.050;9.250;2023-03-16T15:27:40;98712.28;;;16.64;49.30
5455;BME280;2750;49.050;9.250;2023-03-16T15:32:42;98723.84;;;16.49;50.06
5455;BME280;2750;49.050;9.250;2023-03-16T15:37:43;98711.16;;;16.80;50.37
5455;BME280;2750;49.050;9.250;2023-03-16T15:42:46;98705.81;;;16.45;50.42
5455;BME280;2750;49.050;9.250;2023-03-16T15:47:49;98719.56;;;17.19;50.92
5455;BME280;2750;49.050;9.250;2023-03-16T15:52:53;98719.81;;;16.69;51.31
5455;BME280;2750;49.050;9.250;2023-03-16T15:57:58;98709.91;;;16.85;51.31
5455;BME280;2750;49.050;9.250;2023-03-16T16:03:02;98707.28;;;16.61;52.10
5455;BME280;2750;49.050;9.250;2023-03-16T16:08:04;98700.25;;;16.62;53.36
5455;BME280;2750;49.050;9.250;2023-03-16T16:13:12;98712.41;;;16.50;53.35
5455;BME280;2750;49.050;9.250;2023-03-16T16:18:26;98699.19;;;16.28;53.76
5455;BME280;2750;49.050;9.250;2023-03-16T16:23:29;98693.72;;;15.69;55.80
5455;BME280;2750;49.050;9.250;2023-03-16T16:28:33;98693.16;;;15.39;56.72
5455;BME280;2750;49.050;9.250;2023-03-16T16:33:35;98700.94;;;15.53;56.92
5455;BME280;2750;49.050;9.250;2023-03-16T16:38:37;98698.09;;;15.56;57.03
5455;BME280;2750;49.050;9.250;2023-03-16T16:43:41;98693.16;;;15.14;57.25
5455;BME280;2750;49.050;9.250;2023-03-16T16:48:45;98685.31;;;14.74;58.20
5455;BME280;2750;49.050;9.250;2023-03-16T16:53:48;98683.13;;;14.54;58.43
5455;BME280;2750;49.050;9.250;2023-03-16T16:58:51;98673.13;;;14.20;58.74
5455;BME280;2750;49.050;9.250;2023-03-16T17:03:53;98669.00;;;14.30;59.09
5455;BME280;2750;49.050;9.250;2023-03-16T17:08:55;98679.72;;;13.99;59.36
5455;BME280;2750;49.050;9.250;2023-03-16T17:14:00;98674.75;;;13.80;59.27
5455;BME280;2750;49.050;9.250;2023-03-16T17:19:02;98682.31;;;13.99;58.96
5455;BME280;2750;49.050;9.250;2023-03-16T17:24:06;98672.56;;;13.60;59.42
5455;BME280;2750;49.050;9.250;2023-03-16T17:29:15;98678.31;;;13.51;59.86
5455;BME280;2750;49.050;9.250;2023-03-16T17:34:20;98673.16;;;13.21;60.56
5455;BME280;2750;49.050;9.250;2023-03-16T17:39:23;98670.50;;;13.07;60.54
5455;BME280;2750;49.050;9.250;2023-03-16T17:44:30;98669.94;;;12.72;60.96
5455;BME280;2750;49.050;9.250;2023-03-16T17:49:32;98678.22;;;12.78;61.22
5455;BME280;2750;49.050;9.250;2023-03-16T17:54:34;98685.41;;;12.59;61.00
5455;BME280;2750;49.050;9.250;2023-03-16T17:59:38;98684.75;;;12.40;61.60
5455;BME280;2750;49.050;9.250;2023-03-16T18:04:40;98687.53;;;12.37;61.69
5455;BME280;2750;49.050;9.250;2023-03-16T18:09:41;98681.22;;;12.41;61.82
5455;BME280;2750;49.050;9.250;2023-03-16T18:14:44;98682.50;;;12.18;62.49
5455;BME280;2750;49.050;9.250;2023-03-16T18:19:47;98682.91;;;11.95;63.10
5455;BME280;2750;49.050;9.250;2023-03-16T18:24:51;98673.34;;;11.95;63.44
5455;BME280;2750;49.050;9.250;2023-03-16T18:29:54;98669.72;;;11.98;63.10
5455;BME280;2750;49.050;9.250;2023-03-16T18:34:56;98673.22;;;11.81;63.65
5455;BME280;2750;49.050;9.250;2023-03-16T18:39:58;98667.34;;;11.78;63.52
5455;BME280;2750;49.050;9.250;2023-03-16T18:45:01;98665.47;;;11.64;64.03
5455;BME280;2750;49.050;9.250;2023-03-16T18:50:04;98662.38;;;11.40;64.93
5455;BME280;2750;49.050;9.250;2023-03-16T18:55:14;98660.84;;;11.54;64.68
5455;BME280;2750;49.050;9.250;2023-03-16T19:00:20;98662.31;;;11.25;65.37
5455;BME280;2750;49.050;9.250;2023-03-16T19:05:28;98652.34;;;11.50;65.06
5455;BME280;2750;49.050;9.250;2023-03-16T19:10:34;98649.72;;;11.50;65.15
5455;BME280;2750;49.050;9.250;2023-03-16T19:15:38;98645.44;;;11.33;64.81
5455;BME280;2750;49.050;9.250;2023-03-16T19:20:40;98641.13;;;10.99;65.98
5455;BME280;2750;49.050;9.250;2023-03-16T19:25:43;98631.94;;;11.10;65.79
5455;BME280;2750;49.050;9.250;2023-03-16T19:30:47;98633.94;;;11.04;66.00
5455;BME280;2750;49.050;9.250;2023-03-16T19:35:49;98635.31;;;10.77;66.82
5455;BME280;2750;49.050;9.250;2023-03-16T19:40:53;98642.78;;;11.00;66.24
5455;BME280;2750;49.050;9.250;2023-03-16T19:45:57;98638.75;;;10.78;66.28
5455;BME280;2750;49.050;9.250;2023-03-16T19:50:59;98641.91;;;10.84;66.28
5455;BME280;2750;49.050;9.250;2023-03-16T19:56:01;98644.25;;;10.89;66.49
5455;BME280;2750;49.050;9.250;2023-03-16T20:01:05;98644.16;;;10.73;66.32
5455;BME280;2750;49.050;9.250;2023-03-16T20:06:12;98643.72;;;10.82;66.22
5455;BME280;2750;49.050;9.250;2023-03-16T20:11:16;98639.22;;;10.69;66.47
5455;BME280;2750;49.050;9.250;2023-03-16T20:16:24;98636.75;;;10.66;66.78
5455;BME280;2750;49.050;9.250;2023-03-16T20:21:26;98624.47;;;10.52;66.82
5455;BME280;2750;49.050;9.250;2023-03-16T20:26:28;98631.19;;;10.56;67.21
5455;BME280;2750;49.050;9.250;2023-03-16T20:31:34;98630.59;;;10.68;66.84
5455;BME280;2750;49.050;9.250;2023-03-16T20:36:36;98627.53;;;10.60;66.80
5455;BME280;2750;49.050;9.250;2023-03-16T20:41:37;98637.75;;;10.46;66.92
5455;BME280;2750;49.050;9.250;2023-03-16T20:46:40;98631.94;;;10.41;67.30
5455;BME280;2750;49.050;9.250;2023-03-16T20:51:44;98628.59;;;10.56;66.50
5455;BME280;2750;49.050;9.250;2023-03-16T20:56:46;98629.34;;;10.58;66.18
5455;BME280;2750;49.050;9.250;2023-03-16T21:01:50;98631.66;;;10.64;66.25
5455;BME280;2750;49.050;9.250;2023-03-16T21:06:55;98631.56;;;10.66;66.09
5455;BME280;2750;49.050;9.250;2023-03-16T21:11:56;98622.72;;;10.70;66.64
5455;BME280;2750;49.050;9.250;2023-03-16T21:16:59;98618.66;;;10.30;66.68
5455;BME280;2750;49.050;9.250;2023-03-16T21:22:01;98615.16;;;10.48;66.37
5455;BME280;2750;49.050;9.250;2023-03-16T21:27:02;98602.59;;;10.58;66.32
5455;BME280;2750;49.050;9.250;2023-03-16T21:32:09;98606.34;;;10.69;65.72
5455;BME280;2750;49.050;9.250;2023-03-16T21:37:17;98606.31;;;10.52;65.54
5455;BME280;2750;49.050;9.250;2023-03-16T21:42:20;98602.34;;;10.62;65.79
5455;BME280;2750;49.050;9.250;2023-03-16T21:47:25;98605.69;;;10.47;65.53
5455;BME280;2750;49.050;9.250;2023-03-16T21:52:27;98605.31;;;10.54;65.60
5455;BME280;2750;49.050;9.250;2023-03-16T21:57:29;98612.25;;;10.54;65.46
5455;BME280;2750;49.050;9.250;2023-03-16T22:02:33;98600.38;;;10.50;66.12
5455;BME280;2750;49.050;9.250;2023-03-16T22:07:35;98600.97;;;10.38;66.29
5455;BME280;2750;49.050;9.250;2023-03-16T22:12:37;98591.50;;;10.54;66.28
5455;BME280;2750;49.050;9.250;2023-03-16T22:17:40;98592.88;;;10.78;65.44
5455;BME280;2750;49.050;9.250;2023-03-16T22:22:42;98587.06;;;10.90;65.13
5455;BME280;2750;49.050;9.250;2023-03-16T22:27:43;98580.63;;;10.65;65.72
5455;BME280;2750;49.050;9.250;2023-03-16T22:32:49;98578.22;;;10.77;65.58
5455;BME280;2750;49.050;9.250;2023-03-16T22:37:52;98577.25;;;10.80;65.92
5455;BME280;2750;49.050;9.250;2023-03-16T22:42:55;98569.75;;;10.91;65.54
5455;BME280;2750;49.050;9.250;2023-03-16T22:48:01;98569.53;;;10.95;64.91
5455;BME280;2750;49.050;9.250;2023-03-16T22:53:12;98561.34;;;10.86;65.04
5455;BME280;2750;49.050;9.250;2023-03-16T22:58:20;98557.78;;;10.71;65.66
5455;BME280;2750;49.050;9.250;2023-03-16T23:03:27;98559.47;;;10.55;65.80
5455;BME280;2750;49.050;9.250;2023-03-16T23:08:28;98543.06;;;10.72;66.19
5455;BME280;2750;49.050;9.250;2023-03-16T23:13:30;98533.81;;;10.66;66.02
5455;BME280;2750;49.050;9.250;2023-03-16T23:18:33;98534.97;;;10.61;66.00
5455;BME280;2750;49.050;9.250;2023-03-16T23:23:35;98534.38;;;10.73;66.35
5455;BME280;2750;49.050;9.250;2023-03-16T23:28:37;98536.19;;;10.71;65.72
5455;BME280;2750;49.050;9.250;2023-03-16T23:33:40;98528.69;;;10.82;65.59
5455;BME280;2750;49.050;9.250;2023-03-16T23:38:42;98531.84;;;10.71;66.51
5455;BME280;2750;49.050;9.250;2023-03-16T23:43:45;98533.63;;;10.53;66.71
5455;BME280;2750;49.050;9.250;2023-03-16T23:48:48;98527.59;;;10.53;66.33
5455;BME280;2750;49.050;9.250;2023-03-16T23:53:51;98521.50;;;10.37;67.37
5455;BME280;2750;49.050;9.250;2023-03-16T23:58:53;98523.78;;;10.26;66.96
